Time;durP1;ratioP1;P1;durP2;ratioP2;P2;SDS_P1;SDS_P2;PMS_P1;PMS_P2;Temp;Humidity;BMP_temperature;BMP_pressure;BME280_temperature;BME280_humidity;BME280_pressure;Samples;Min_cycle;Max_cycle;Signal;HPM_P1;HPM_P2
2022/05/13 00:00:42;;;;;;;;;7.75;7.00;;;;;;;;5042843;28;46560;-73
2022/05/13 00:03:07;;;;;;;;;5.00;5.00;;;;;;;;5044441;28;45443;-73
2022/05/13 00:05:33;;;;;;;;;3.50;3.50;;;;;;;;5047630;28;45309;-73
2022/05/13 00:07:58;;;;;;;;;0.25;0.25;;;;;;;;5048518;28;45531;-72
2022/05/13 00:10:24;;;;;;;;;1.00;1.00;;;;;;;;5048001;28;46260;-73
2022/05/13 00:12:50;;;;;;;;;3.00;2.00;;;;;;;;5045204;28;45421;-73
2022/05/13 00:15:17;;;;;;;;;2.50;0.00;;;;;;;;5043024;28;45529;-73
2022/05/13 00:17:42;;;;;;;;;0.00;0.00;;;;;;;;5048227;28;45578;-73
2022/05/13 00:20:08;;;;;;;;;0.50;0.00;;;;;;;;5055965;28;46296;-72
2022/05/13 00:22:33;;;;;;;;;2.50;1.75;;;;;;;;5053345;28;45585;-73
2022/05/13 00:24:59;;;;;;;;;1.00;1.00;;;;;;;;5038054;28;45443;-72
2022/05/13 00:27:24;;;;;;;;;2.00;1.00;;;;;;;;5046029;28;45439;-72
2022/05/13 00:29:49;;;;;;;;;0.75;0.75;;;;;;;;5044671;28;45260;-73
2022/05/13 00:32:15;;;;;;;;;0.00;0.00;;;;;;;;5044469;28;45458;-73
2022/05/13 00:34:40;;;;;;;;;0.75;0.75;;;;;;;;5044023;28;45312;-73
2022/05/13 00:37:05;;;;;;;;;2.00;0.00;;;;;;;;5044204;28;45332;-72
2022/05/13 00:39:31;;;;;;;;;0.25;0.25;;;;;;;;5044348;28;45533;-73
2022/05/13 00:42:04;;;;;;;;;1.00;1.00;;;;;;;;5031388;28;45846;-72
2022/05/13 00:44:29;;;;;;;;;2.00;2.00;;;;;;;;5061249;28;45380;-72
2022/05/13 00:46:55;;;;;;;;;2.75;2.75;;;;;;;;5059961;28;45557;-72
2022/05/13 00:49:21;;;;;;;;;0.00;0.00;;;;;;;;5054368;28;46115;-74
2022/05/13 00:51:47;;;;;;;;;1.25;0.50;;;;;;;;5055091;28;45411;-73
2022/05/13 00:54:14;;;;;;;;;1.00;1.00;;;;;;;;5031875;28;45373;-73
2022/05/13 00:56:42;;;;;;;;;2.00;1.00;;;;;;;;5049580;28;45431;-73
2022/05/13 00:59:08;;;;;;;;;0.50;0.00;;;;;;;;5051769;28;46993;-73
2022/05/13 01:01:33;;;;;;;;;0.00;0.00;;;;;;;;5052384;28;45681;-73
2022/05/13 01:04:01;;;;;;;;;0.75;0.75;;;;;;;;5050834;28;45390;-74
2022/05/13 01:06:26;;;;;;;;;1.00;1.00;;;;;;;;5049303;28;47453;-73
2022/05/13 01:08:52;;;;;;;;;1.00;1.00;;;;;;;;5048798;28;45517;-74
2022/05/13 01:11:19;;;;;;;;;2.00;2.00;;;;;;;;5050343;28;45626;-73
2022/05/13 01:13:52;;;;;;;;;0.75;0.00;;;;;;;;5053597;28;45472;-73
2022/05/13 01:16:17;;;;;;;;;2.00;2.00;;;;;;;;5051726;28;45270;-73
2022/05/13 01:18:45;;;;;;;;;1.00;1.00;;;;;;;;5049050;28;47034;-71
2022/05/13 01:21:13;;;;;;;;;3.25;1.00;;;;;;;;5049062;28;45419;-73
2022/05/13 01:23:43;;;;;;;;;3.00;2.50;;;;;;;;5048985;28;45418;-73
2022/05/13 01:26:10;;;;;;;;;0.00;0.00;;;;;;;;5051347;28;45569;-72
2022/05/13 01:28:43;;;;;;;;;2.00;0.75;;;;;;;;5063454;28;46287;-73
2022/05/13 01:31:10;;;;;;;;;0.00;0.00;;;;;;;;5058460;28;45593;-73
2022/05/13 01:33:36;;;;;;;;;0.50;0.50;;;;;;;;5040489;28;45493;-74
2022/05/13 01:36:03;;;;;;;;;0.25;0.25;;;;;;;;5057795;28;45480;-73
2022/05/13 01:38:30;;;;;;;;;0.00;0.00;;;;;;;;5058039;28;47018;-74
2022/05/13 01:40:55;;;;;;;;;0.75;0.75;;;;;;;;5055932;28;45571;-74
2022/05/13 01:43:21;;;;;;;;;1.00;1.00;;;;;;;;5071697;28;45807;-73
2022/05/13 01:45:47;;;;;;;;;0.00;0.00;;;;;;;;5058879;28;45376;-73
2022/05/13 01:48:12;;;;;;;;;1.25;1.25;;;;;;;;5060927;28;46141;-73
2022/05/13 01:50:38;;;;;;;;;2.00;2.00;;;;;;;;5067965;28;45639;-73
2022/05/13 01:53:03;;;;;;;;;2.50;2.50;;;;;;;;5054867;28;45413;-73
2022/05/13 01:55:29;;;;;;;;;8.75;8.75;;;;;;;;5057438;28;45458;-74
2022/05/13 01:57:54;;;;;;;;;11.00;10.25;;;;;;;;5058306;28;46266;-73
2022/05/13 02:00:20;;;;;;;;;9.00;9.00;;;;;;;;5057868;28;45684;-73
2022/05/13 02:05:28;;;;;;;;;17.25;15.75;;;;;;;;5057646;28;45485;-74
2022/05/13 02:07:54;;;;;;;;;24.75;22.75;;;;;;;;5052368;28;45383;-74
2022/05/13 02:10:20;;;;;;;;;22.00;20.50;;;;;;;;5058990;28;45445;-74
2022/05/13 02:12:45;;;;;;;;;17.50;17.00;;;;;;;;5063828;27;45554;-74
2022/05/13 02:15:10;;;;;;;;;18.50;17.25;;;;;;;;5062301;28;45386;-74
2022/05/13 02:17:36;;;;;;;;;21.75;20.00;;;;;;;;5057296;28;46775;-73
2022/05/13 02:20:02;;;;;;;;;20.50;19.25;;;;;;;;5054268;28;45513;-74
2022/05/13 02:22:27;;;;;;;;;14.00;13.75;;;;;;;;5058704;28;45426;-74
2022/05/13 02:24:52;;;;;;;;;10.75;10.75;;;;;;;;5057940;28;45489;-73
2022/05/13 02:27:18;;;;;;;;;10.25;9.50;;;;;;;;5058222;28;47051;-73
2022/05/13 02:29:43;;;;;;;;;11.50;9.25;;;;;;;;5056752;28;46325;-74
2022/05/13 02:32:08;;;;;;;;;8.00;8.00;;;;;;;;5054978;28;45500;-74
2022/05/13 02:34:36;;;;;;;;;9.75;8.25;;;;;;;;5055700;28;45348;-74
2022/05/13 02:37:01;;;;;;;;;7.50;6.00;;;;;;;;5059100;28;46706;-73
2022/05/13 02:39:27;;;;;;;;;6.00;6.00;;;;;;;;5056946;28;45569;-73
2022/05/13 02:41:52;;;;;;;;;6.25;4.00;;;;;;;;5056595;27;45371;-74
2022/05/13 02:44:17;;;;;;;;;3.75;3.50;;;;;;;;5054223;28;45495;-73
2022/05/13 02:46:43;;;;;;;;;3.75;3.75;;;;;;;;5053495;28;46048;-73
2022/05/13 02:49:08;;;;;;;;;2.00;2.00;;;;;;;;5058691;28;45484;-73
2022/05/13 02:51:33;;;;;;;;;2.75;2.75;;;;;;;;5057273;28;45426;-73
2022/05/13 02:53:58;;;;;;;;;4.00;4.00;;;;;;;;5056510;28;45482;-73
2022/05/13 02:56:24;;;;;;;;;3.00;2.00;;;;;;;;5044315;28;46904;-73
2022/05/13 02:58:50;;;;;;;;;4.00;2.00;;;;;;;;5052681;28;45432;-73
2022/05/13 03:01:17;;;;;;;;;2.50;2.00;;;;;;;;5058873;28;45357;-74
2022/05/13 03:03:44;;;;;;;;;2.00;2.00;;;;;;;;5060012;28;45386;-73
2022/05/13 03:06:09;;;;;;;;;3.00;2.00;;;;;;;;5061519;28;45562;-73
2022/05/13 03:08:34;;;;;;;;;1.50;1.50;;;;;;;;5059842;28;45323;-73
2022/05/13 03:11:00;;;;;;;;;2.00;2.00;;;;;;;;5056887;28;45544;-73
2022/05/13 03:13:26;;;;;;;;;2.75;2.00;;;;;;;;5060623;28;45497;-73
2022/05/13 03:15:52;;;;;;;;;1.00;1.00;;;;;;;;5071406;27;46135;-73
2022/05/13 03:18:17;;;;;;;;;2.00;2.00;;;;;;;;5045978;28;45590;-73
2022/05/13 03:20:42;;;;;;;;;2.75;2.75;;;;;;;;5060017;28;45784;-73
2022/05/13 03:23:07;;;;;;;;;2.00;2.00;;;;;;;;5071516;27;45540;-74
2022/05/13 03:25:33;;;;;;;;;3.25;2.50;;;;;;;;5065096;28;46342;-73
2022/05/13 03:27:58;;;;;;;;;5.25;4.25;;;;;;;;5061319;28;45463;-74
2022/05/13 03:30:24;;;;;;;;;2.00;2.00;;;;;;;;5060135;28;45547;-74
2022/05/13 03:32:50;;;;;;;;;4.75;2.00;;;;;;;;5060045;28;45407;-73
2022/05/13 03:35:16;;;;;;;;;2.75;1.75;;;;;;;;5059496;27;47215;-73
2022/05/13 03:37:41;;;;;;;;;3.50;3.50;;;;;;;;5055682;28;45555;-73
2022/05/13 03:40:07;;;;;;;;;1.75;1.50;;;;;;;;5061882;28;45364;-73
2022/05/13 03:42:38;;;;;;;;;3.25;1.75;;;;;;;;5059426;27;45392;-73
2022/05/13 03:45:04;;;;;;;;;1.00;1.00;;;;;;;;5057846;28;45548;-72
2022/05/13 03:47:30;;;;;;;;;5.00;2.50;;;;;;;;5058044;28;45373;-72
2022/05/13 03:49:55;;;;;;;;;3.00;2.50;;;;;;;;5055298;28;45384;-73
2022/05/13 03:52:20;;;;;;;;;2.50;1.75;;;;;;;;5060920;28;45338;-73
2022/05/13 03:54:45;;;;;;;;;2.75;2.75;;;;;;;;5064071;28;46865;-73
2022/05/13 03:57:11;;;;;;;;;4.25;3.25;;;;;;;;5063796;28;45480;-73
2022/05/13 03:59:36;;;;;;;;;5.50;2.50;;;;;;;;5059355;28;45386;-73
2022/05/13 04:02:02;;;;;;;;;2.25;2.25;;;;;;;;5056272;28;45405;-73
2022/05/13 04:04:29;;;;;;;;;3.50;3.00;;;;;;;;5065650;27;46048;-73
2022/05/13 04:09:39;;;;;;;;;3.75;3.00;;;;;;;;5061040;28;45550;-73
2022/05/13 04:17:32;;;;;;;;;1.50;1.50;;;;;;;;5058692;28;46017;-73
2022/05/13 04:19:58;;;;;;;;;4.00;4.00;;;;;;;;5069330;27;45526;-72
2022/05/13 04:22:25;;;;;;;;;3.00;2.00;;;;;;;;5060172;28;45350;-72
2022/05/13 04:24:52;;;;;;;;;5.00;3.00;;;;;;;;5064340;27;47085;-73
2022/05/13 04:27:17;;;;;;;;;1.50;1.50;;;;;;;;5062485;28;45491;-72
2022/05/13 04:29:42;;;;;;;;;2.25;2.25;;;;;;;;5064041;27;45371;-72
2022/05/13 04:32:08;;;;;;;;;4.75;4.50;;;;;;;;5056169;28;45486;-73
2022/05/13 04:34:33;;;;;;;;;4.75;3.00;;;;;;;;5056671;28;47146;-74
2022/05/13 04:36:58;;;;;;;;;4.50;2.75;;;;;;;;5059830;28;45507;-73
2022/05/13 04:39:23;;;;;;;;;12.50;12.50;;;;;;;;5054147;28;45521;-74
2022/05/13 04:44:35;;;;;;;;;1.00;1.00;;;;;;;;5057913;28;45332;-73
2022/05/13 04:47:00;;;;;;;;;7.75;3.75;;;;;;;;5054122;28;45402;-73
2022/05/13 04:49:25;;;;;;;;;5.50;4.00;;;;;;;;5057642;28;45477;-73
2022/05/13 04:51:50;;;;;;;;;4.50;4.25;;;;;;;;5057390;28;45604;-72
2022/05/13 04:54:16;;;;;;;;;3.75;3.75;;;;;;;;5058148;28;45454;-73
2022/05/13 04:56:41;;;;;;;;;6.75;3.50;;;;;;;;5057908;28;45380;-75
2022/05/13 04:59:06;;;;;;;;;5.25;4.00;;;;;;;;5060033;28;45561;-76
2022/05/13 05:01:31;;;;;;;;;4.75;3.50;;;;;;;;5057662;28;45434;-77
2022/05/13 05:03:57;;;;;;;;;3.50;3.50;;;;;;;;5056914;28;47022;-76
2022/05/13 05:06:22;;;;;;;;;6.00;3.75;;;;;;;;5057458;28;45966;-77
2022/05/13 05:08:48;;;;;;;;;6.25;3.50;;;;;;;;5060194;28;45537;-77
2022/05/13 05:11:14;;;;;;;;;4.00;4.00;;;;;;;;5068853;27;45547;-77
2022/05/13 05:13:41;;;;;;;;;6.75;4.75;;;;;;;;5068519;28;46165;-76
2022/05/13 05:16:07;;;;;;;;;8.25;6.75;;;;;;;;5059588;28;45396;-75
2022/05/13 05:18:36;;;;;;;;;7.50;2.75;;;;;;;;5062796;28;45539;-74
2022/05/13 05:21:03;;;;;;;;;7.00;6.00;;;;;;;;5064126;28;45546;-75
2022/05/13 05:23:30;;;;;;;;;3.00;2.00;;;;;;;;5055992;28;47859;-75
2022/05/13 05:25:56;;;;;;;;;6.00;3.75;;;;;;;;5052544;28;45475;-75
2022/05/13 05:28:21;;;;;;;;;14.50;14.50;;;;;;;;5068942;28;45346;-75
2022/05/13 05:30:47;;;;;;;;;7.00;5.50;;;;;;;;5051447;28;45576;-75
2022/05/13 05:33:13;;;;;;;;;4.25;3.75;;;;;;;;5050289;28;46112;-75
2022/05/13 05:35:38;;;;;;;;;5.75;5.25;;;;;;;;5050194;28;45406;-75
2022/05/13 05:38:03;;;;;;;;;7.00;4.25;;;;;;;;5049253;28;45450;-75
2022/05/13 05:40:29;;;;;;;;;4.50;2.75;;;;;;;;5030131;28;45314;-75
2022/05/13 05:42:54;;;;;;;;;5.00;3.00;;;;;;;;5052712;28;46035;-74
2022/05/13 05:45:20;;;;;;;;;4.75;4.00;;;;;;;;5051734;28;45441;-75
2022/05/13 05:47:45;;;;;;;;;4.00;4.00;;;;;;;;5037846;28;45431;-74
2022/05/13 05:50:12;;;;;;;;;4.50;4.50;;;;;;;;5039612;28;45499;-74
2022/05/13 05:52:38;;;;;;;;;3.75;3.75;;;;;;;;5048827;28;46559;-72
2022/05/13 05:58:02;;;;;;;;;5.00;5.00;;;;;;;;5037056;28;45416;-74
2022/05/13 06:00:27;;;;;;;;;5.00;5.00;;;;;;;;5038718;28;45581;-75
2022/05/13 06:02:52;;;;;;;;;5.75;4.00;;;;;;;;5052543;28;46676;-75
2022/05/13 06:05:18;;;;;;;;;5.50;5.00;;;;;;;;5049063;28;45535;-73
2022/05/13 06:07:45;;;;;;;;;5.00;4.75;;;;;;;;5063647;28;45580;-75
2022/05/13 06:10:11;;;;;;;;;6.50;5.00;;;;;;;;5048586;28;45502;-74
2022/05/13 06:12:36;;;;;;;;;4.00;4.00;;;;;;;;5047542;28;46156;-74
2022/05/13 06:15:02;;;;;;;;;4.50;4.50;;;;;;;;5046664;28;45547;-74
2022/05/13 06:17:27;;;;;;;;;6.25;4.00;;;;;;;;5054633;28;45493;-74
2022/05/13 06:19:52;;;;;;;;;5.75;3.75;;;;;;;;5051324;28;45504;-73
2022/05/13 06:22:17;;;;;;;;;4.00;4.00;;;;;;;;5051159;28;46901;-74
2022/05/13 06:24:42;;;;;;;;;4.50;4.50;;;;;;;;5044376;28;45849;-74
2022/05/13 06:27:09;;;;;;;;;6.00;5.00;;;;;;;;5050544;28;45489;-72
2022/05/13 06:29:36;;;;;;;;;6.25;4.25;;;;;;;;5046687;28;46199;-74
2022/05/13 06:32:02;;;;;;;;;4.75;4.50;;;;;;;;5051232;28;46959;-72
2022/05/13 06:34:27;;;;;;;;;11.00;7.50;;;;;;;;5053244;28;45465;-73
2022/05/13 06:36:52;;;;;;;;;5.00;4.50;;;;;;;;5047042;28;45482;-77
2022/05/13 06:39:18;;;;;;;;;9.00;5.25;;;;;;;;5055025;28;45299;-72
2022/05/13 06:41:43;;;;;;;;;6.00;4.75;;;;;;;;5051083;28;46086;-72
2022/05/13 06:44:09;;;;;;;;;6.00;5.00;;;;;;;;5055060;28;46901;-78
2022/05/13 06:46:39;;;;;;;;;7.75;4.50;;;;;;;;5053243;28;45612;-77
2022/05/13 06:49:05;;;;;;;;;5.00;5.00;;;;;;;;5053102;28;45398;-76
2022/05/13 06:51:31;;;;;;;;;8.50;7.25;;;;;;;;5050110;28;46436;-78
2022/05/13 06:53:56;;;;;;;;;8.00;8.00;;;;;;;;5053603;28;45777;-76
2022/05/13 06:56:22;;;;;;;;;8.25;6.75;;;;;;;;5048864;28;45372;-77
2022/05/13 06:58:47;;;;;;;;;1.50;1.50;;;;;;;;5051509;28;45621;-71
2022/05/13 07:01:12;;;;;;;;;4.25;3.25;;;;;;;;5047573;28;45504;-74
2022/05/13 07:03:37;;;;;;;;;5.75;3.00;;;;;;;;5056674;28;45582;-74
2022/05/13 07:06:03;;;;;;;;;6.75;6.75;;;;;;;;5049971;28;45449;-73
2022/05/13 07:08:28;;;;;;;;;6.75;5.50;;;;;;;;5049913;28;45459;-75
2022/05/13 07:10:53;;;;;;;;;5.75;4.25;;;;;;;;5070557;28;46155;-74
2022/05/13 07:13:19;;;;;;;;;7.25;5.75;;;;;;;;5036099;28;45389;-74
2022/05/13 07:15:45;;;;;;;;;5.50;4.25;;;;;;;;5045328;28;45459;-72
2022/05/13 07:18:10;;;;;;;;;5.00;4.00;;;;;;;;5049718;28;45397;-75
2022/05/13 07:20:35;;;;;;;;;6.75;3.25;;;;;;;;5049017;28;45496;-75
2022/05/13 07:23:01;;;;;;;;;5.50;4.75;;;;;;;;5053124;28;45430;-74
2022/05/13 07:25:26;;;;;;;;;4.50;3.00;;;;;;;;5051317;28;45419;-75
2022/05/13 07:27:52;;;;;;;;;4.75;3.50;;;;;;;;5050263;28;45398;-75
2022/05/13 07:30:17;;;;;;;;;7.00;4.00;;;;;;;;5048885;28;46026;-74
2022/05/13 07:32:42;;;;;;;;;8.00;7.00;;;;;;;;5031091;28;45498;-75
2022/05/13 07:35:08;;;;;;;;;5.50;4.00;;;;;;;;5033915;28;45435;-75
2022/05/13 07:37:33;;;;;;;;;5.00;5.00;;;;;;;;5052681;28;45300;-75
2022/05/13 07:42:43;;;;;;;;;3.50;3.00;;;;;;;;5041732;28;45420;-69
2022/05/13 07:45:09;;;;;;;;;5.75;2.75;;;;;;;;5040973;28;45432;-75
2022/05/13 07:47:35;;;;;;;;;1.00;1.00;;;;;;;;5040711;28;45883;-74
2022/05/13 07:50:00;;;;;;;;;2.75;2.75;;;;;;;;5037369;28;45971;-76
2022/05/13 07:52:26;;;;;;;;;4.75;4.75;;;;;;;;5039818;28;45301;-74
2022/05/13 07:54:51;;;;;;;;;3.00;3.00;;;;;;;;5057336;28;45532;-74
2022/05/13 07:57:17;;;;;;;;;6.25;3.25;;;;;;;;5057522;28;45379;-75
2022/05/13 08:02:25;;;;;;;;;2.00;2.00;;;;;;;;5058159;28;45454;-74
2022/05/13 08:04:51;;;;;;;;;2.00;2.00;;;;;;;;5053669;27;45586;-73
2022/05/13 08:07:16;;;;;;;;;1.00;1.00;;;;;;;;5060241;27;45366;-74
2022/05/13 08:09:41;;;;;;;;;1.75;1.00;;;;;;;;5039765;28;47205;-74
2022/05/13 08:12:06;;;;;;;;;4.50;4.00;;;;;;;;5057454;28;45449;-75
2022/05/13 08:14:32;;;;;;;;;7.00;5.75;;;;;;;;5057382;28;45355;-72
2022/05/13 08:16:57;;;;;;;;;3.00;3.00;;;;;;;;5053808;28;45213;-73
2022/05/13 08:19:22;;;;;;;;;4.50;2.50;;;;;;;;5059682;27;46349;-74
2022/05/13 08:21:48;;;;;;;;;5.25;4.00;;;;;;;;5057213;28;45240;-74
2022/05/13 08:24:13;;;;;;;;;2.00;1.50;;;;;;;;5039732;28;45571;-74
2022/05/13 08:26:38;;;;;;;;;4.50;1.75;;;;;;;;5057771;28;45472;-73
2022/05/13 08:29:03;;;;;;;;;5.50;3.75;;;;;;;;5054858;28;47107;-74
2022/05/13 08:31:29;;;;;;;;;4.00;4.00;;;;;;;;5058085;28;45357;-75
2022/05/13 08:33:54;;;;;;;;;3.50;3.50;;;;;;;;5057750;28;45610;-74
2022/05/13 08:36:19;;;;;;;;;3.00;3.00;;;;;;;;5057426;28;45355;-73
2022/05/13 08:38:45;;;;;;;;;4.50;3.50;;;;;;;;5057354;28;45372;-75
2022/05/13 08:41:16;;;;;;;;;2.25;2.25;;;;;;;;5055395;28;45503;-74
2022/05/13 08:43:44;;;;;;;;;6.00;4.00;;;;;;;;5054312;28;45517;-75
2022/05/13 08:46:16;;;;;;;;;4.50;2.00;;;;;;;;5040756;28;45472;-74
2022/05/13 08:48:53;;;;;;;;;3.75;3.25;;;;;;;;5056829;28;46173;-74
2022/05/13 08:51:24;;;;;;;;;2.75;2.75;;;;;;;;5056410;28;46297;-75
2022/05/13 08:53:55;;;;;;;;;1.00;1.00;;;;;;;;5056418;28;45366;-74
2022/05/13 08:56:25;;;;;;;;;4.00;4.00;;;;;;;;5055594;28;45428;-73
2022/05/13 08:59:13;;;;;;;;;10.75;9.25;;;;;;;;5052306;28;46627;-75
2022/05/13 09:01:44;;;;;;;;;5.25;3.25;;;;;;;;5066704;27;45516;-75
2022/05/13 09:04:12;;;;;;;;;2.50;2.50;;;;;;;;5039762;28;45383;-73
2022/05/13 09:06:49;;;;;;;;;2.00;2.00;;;;;;;;5057057;28;45410;-76
2022/05/13 09:09:14;;;;;;;;;5.00;3.50;;;;;;;;5056749;28;46060;-75
2022/05/13 09:11:55;;;;;;;;;3.00;3.00;;;;;;;;5056068;28;45526;-75
2022/05/13 09:14:34;;;;;;;;;3.75;1.75;;;;;;;;5056022;28;45307;-74
2022/05/13 09:17:09;;;;;;;;;2.00;1.00;;;;;;;;5037413;28;47382;-75
2022/05/13 09:19:35;;;;;;;;;1.75;1.25;;;;;;;;5055970;27;46281;-74
2022/05/13 09:22:04;;;;;;;;;2.00;1.00;;;;;;;;5058119;28;45690;-74
2022/05/13 09:24:29;;;;;;;;;9.00;3.50;;;;;;;;5056441;28;45424;-74
2022/05/13 09:26:55;;;;;;;;;5.00;4.00;;;;;;;;5038666;28;45299;-74
2022/05/13 09:29:20;;;;;;;;;4.25;4.25;;;;;;;;5055814;28;46117;-74
2022/05/13 09:31:47;;;;;;;;;4.50;3.25;;;;;;;;5034717;28;45254;-74
2022/05/13 09:34:14;;;;;;;;;4.00;3.00;;;;;;;;5058706;28;45461;-74
2022/05/13 09:36:39;;;;;;;;;1.00;1.00;;;;;;;;5056014;28;45553;-74
2022/05/13 09:39:20;;;;;;;;;2.00;2.00;;;;;;;;5055389;28;45405;-74
2022/05/13 09:41:45;;;;;;;;;2.25;1.25;;;;;;;;5056315;28;45495;-75
2022/05/13 09:44:12;;;;;;;;;0.00;0.00;;;;;;;;5054266;28;45550;-74
2022/05/13 09:46:37;;;;;;;;;1.50;1.50;;;;;;;;5054777;28;45572;-75
2022/05/13 09:49:10;;;;;;;;;1.00;1.00;;;;;;;;5058215;28;45405;-74
2022/05/13 09:51:37;;;;;;;;;1.00;1.00;;;;;;;;5056486;28;45609;-74
2022/05/13 09:54:05;;;;;;;;;3.25;1.00;;;;;;;;5055887;28;45753;-74
2022/05/13 09:56:38;;;;;;;;;4.00;3.00;;;;;;;;5056236;28;45381;-74
2022/05/13 09:59:12;;;;;;;;;7.75;6.25;;;;;;;;5052605;28;46236;-74
2022/05/13 10:01:37;;;;;;;;;6.50;6.50;;;;;;;;5053616;28;45415;-74
2022/05/13 10:04:10;;;;;;;;;2.00;2.00;;;;;;;;5057533;28;45372;-74
2022/05/13 10:06:36;;;;;;;;;3.25;2.50;;;;;;;;5055700;28;45450;-74
2022/05/13 10:14:37;;;;;;;;;2.75;2.25;;;;;;;;5059518;28;45471;-75
2022/05/13 10:17:15;;;;;;;;;2.00;2.00;;;;;;;;5055951;28;45419;-73
2022/05/13 10:19:47;;;;;;;;;3.00;3.00;;;;;;;;5049426;28;47212;-75
2022/05/13 10:22:15;;;;;;;;;14.75;11.25;;;;;;;;5059386;28;45279;-74
2022/05/13 10:24:47;;;;;;;;;1.00;1.00;;;;;;;;5052264;28;45401;-74
2022/05/13 10:27:19;;;;;;;;;3.50;3.50;;;;;;;;5056014;28;45478;-75
2022/05/13 10:29:46;;;;;;;;;1.25;1.00;;;;;;;;5058371;28;45557;-74
2022/05/13 10:32:16;;;;;;;;;4.00;4.00;;;;;;;;5056212;28;45500;-74
2022/05/13 10:34:48;;;;;;;;;2.75;1.00;;;;;;;;5055872;28;45387;-75
2022/05/13 10:37:33;;;;;;;;;2.00;2.00;;;;;;;;5059491;28;45526;-75
2022/05/13 10:40:01;;;;;;;;;4.75;3.00;;;;;;;;5058586;28;45351;-73
2022/05/13 10:43:02;;;;;;;;;17.25;13.50;;;;;;;;5057929;28;45445;-74
2022/05/13 10:45:30;;;;;;;;;1.00;1.00;;;;;;;;4996414;28;45587;-73
2022/05/13 10:48:05;;;;;;;;;2.25;2.00;;;;;;;;4996452;28;45623;-74
2022/05/13 10:50:38;;;;;;;;;1.00;1.00;;;;;;;;4997077;28;46927;-74
2022/05/13 10:53:15;;;;;;;;;3.25;1.75;;;;;;;;4994032;28;45468;-74
2022/05/13 10:55:43;;;;;;;;;9.75;9.00;;;;;;;;4993816;28;45320;-74
2022/05/13 10:58:11;;;;;;;;;3.00;3.00;;;;;;;;4997542;28;45612;-75
2022/05/13 11:00:55;;;;;;;;;2.00;1.25;;;;;;;;4996774;28;46231;-73
2022/05/13 11:03:30;;;;;;;;;3.00;3.00;;;;;;;;4997315;28;45489;-74
2022/05/13 11:05:55;;;;;;;;;1.75;1.75;;;;;;;;4996319;28;45604;-74
2022/05/13 11:08:55;;;;;;;;;2.00;2.00;;;;;;;;4996074;28;45434;-74
2022/05/13 11:11:33;;;;;;;;;8.75;6.00;;;;;;;;4895700;28;47655;-75
2022/05/13 11:14:09;;;;;;;;;2.67;2.67;;;;;;;;4895448;28;45771;-74
2022/05/13 11:16:51;;;;;;;;;2.75;2.75;;;;;;;;4895426;29;45376;-75
2022/05/13 11:19:22;;;;;;;;;5.00;2.75;;;;;;;;4919469;28;45609;-76
2022/05/13 11:21:47;;;;;;;;;1.00;1.00;;;;;;;;4949860;28;45489;-75
2022/05/13 11:27:04;;;;;;;;;2.33;1.00;;;;;;;;4950842;28;45540;-74
2022/05/13 11:29:40;;;;;;;;;1.00;1.00;;;;;;;;4950923;28;45382;-75
2022/05/13 11:32:15;;;;;;;;;3.67;1.33;;;;;;;;4951167;28;46458;-74
2022/05/13 11:34:44;;;;;;;;;4.00;4.00;;;;;;;;4952482;28;45374;-74
2022/05/13 11:37:12;;;;;;;;;3.33;3.00;;;;;;;;4952544;28;45454;-74
2022/05/13 11:39:37;;;;;;;;;2.33;2.33;;;;;;;;4950440;28;45544;-74
2022/05/13 11:42:29;;;;;;;;;1.33;1.33;;;;;;;;4950313;28;45952;-74
2022/05/13 11:45:12;;;;;;;;;3.00;1.67;;;;;;;;4975694;28;45484;-75
2022/05/13 11:47:43;;;;;;;;;2.00;2.00;;;;;;;;5027225;28;45399;-72
2022/05/13 11:50:08;;;;;;;;;4.50;4.00;;;;;;;;5013850;28;45808;-74
2022/05/13 11:52:40;;;;;;;;;2.00;1.33;;;;;;;;5015089;28;46323;-74
2022/05/13 11:55:14;;;;;;;;;8.25;7.00;;;;;;;;5014723;28;45444;-73
2022/05/13 11:57:41;;;;;;;;;5.50;4.75;;;;;;;;5015932;28;45494;-73
2022/05/13 12:00:23;;;;;;;;;3.67;3.67;;;;;;;;5016608;28;45789;-74
2022/05/13 12:02:54;;;;;;;;;2.00;2.00;;;;;;;;5015199;28;46365;-74
2022/05/13 12:05:19;;;;;;;;;1.00;1.00;;;;;;;;5015048;28;45534;-73
2022/05/13 12:08:03;;;;;;;;;9.00;7.00;;;;;;;;5012771;28;45469;-74
2022/05/13 12:10:52;;;;;;;;;6.00;6.00;;;;;;;;5025026;28;45520;-73
2022/05/13 12:13:20;;;;;;;;;1.33;1.33;;;;;;;;5016386;28;46269;-73
2022/05/13 12:15:49;;;;;;;;;2.00;2.00;;;;;;;;5015786;28;45580;-73
2022/05/13 12:18:34;;;;;;;;;4.33;3.00;;;;;;;;5015707;28;45478;-74
2022/05/13 12:21:09;;;;;;;;;3.00;3.00;;;;;;;;5020391;28;45431;-74
2022/05/13 12:23:34;;;;;;;;;10.00;7.00;;;;;;;;5027924;28;47309;-74
2022/05/13 12:26:04;;;;;;;;;4.75;4.75;;;;;;;;5052889;28;45535;-73
2022/05/13 12:28:31;;;;;;;;;2.00;2.00;;;;;;;;5056976;28;45376;-74
2022/05/13 12:30:56;;;;;;;;;3.33;2.67;;;;;;;;5057623;28;45286;-74
2022/05/13 12:33:24;;;;;;;;;1.00;1.00;;;;;;;;5056655;28;46295;-74
2022/05/13 12:38:57;;;;;;;;;3.00;2.00;;;;;;;;5057103;28;45458;-74
2022/05/13 12:41:24;;;;;;;;;3.00;3.00;;;;;;;;5056391;27;45469;-73
2022/05/13 12:44:08;;;;;;;;;1.00;1.00;;;;;;;;5052554;28;46041;-74
2022/05/13 12:46:41;;;;;;;;;2.75;2.00;;;;;;;;5066981;28;45399;-73
2022/05/13 12:49:11;;;;;;;;;2.00;2.00;;;;;;;;5057005;28;45378;-74
2022/05/13 12:51:51;;;;;;;;;2.00;2.00;;;;;;;;5056796;28;46984;-74
2022/05/13 12:54:18;;;;;;;;;3.33;3.00;;;;;;;;5056944;28;46219;-74
2022/05/13 12:56:46;;;;;;;;;3.25;3.25;;;;;;;;5056747;28;45509;-74
2022/05/13 12:59:11;;;;;;;;;1.00;1.00;;;;;;;;5054882;28;45360;-72
2022/05/13 13:01:39;;;;;;;;;2.25;2.00;;;;;;;;5054623;27;45515;-75
2022/05/13 13:04:06;;;;;;;;;4.00;3.00;;;;;;;;5057871;28;46405;-74
2022/05/13 13:06:42;;;;;;;;;4.33;3.67;;;;;;;;5056223;28;45403;-74
2022/05/13 13:09:14;;;;;;;;;2.67;2.00;;;;;;;;5056706;28;47213;-74
2022/05/13 13:11:46;;;;;;;;;2.00;2.00;;;;;;;;5055885;28;45424;-74
2022/05/13 13:14:14;;;;;;;;;1.67;1.67;;;;;;;;5035486;28;46038;-75
2022/05/13 13:16:39;;;;;;;;;1.00;1.00;;;;;;;;5053775;28;45801;-74
2022/05/13 13:19:08;;;;;;;;;3.33;2.00;;;;;;;;5058456;28;45407;-75
2022/05/13 13:21:33;;;;;;;;;2.00;2.00;;;;;;;;5056702;28;45495;-75
2022/05/13 13:24:00;;;;;;;;;1.00;1.00;;;;;;;;5056220;27;46353;-74
2022/05/13 13:26:25;;;;;;;;;1.33;1.33;;;;;;;;5056114;28;45304;-74
2022/05/13 13:28:52;;;;;;;;;4.25;2.50;;;;;;;;5052465;28;45392;-74
2022/05/13 13:31:22;;;;;;;;;9.25;8.50;;;;;;;;5058116;27;45673;-74
2022/05/13 13:33:49;;;;;;;;;1.00;1.00;;;;;;;;5055875;28;46575;-75
2022/05/13 13:36:16;;;;;;;;;2.00;2.00;;;;;;;;5056457;28;45438;-72
2022/05/13 13:38:47;;;;;;;;;2.67;2.67;;;;;;;;5057046;28;45738;-73
2022/05/13 13:41:35;;;;;;;;;1.00;1.00;;;;;;;;5053126;28;45579;-74
2022/05/13 13:44:02;;;;;;;;;3.00;3.00;;;;;;;;5037189;28;46319;-74
2022/05/13 13:46:30;;;;;;;;;2.00;1.33;;;;;;;;5055909;28;45422;-73
2022/05/13 13:48:57;;;;;;;;;0.67;0.67;;;;;;;;5055644;28;45386;-74
2022/05/13 13:51:27;;;;;;;;;1.00;1.00;;;;;;;;5055946;28;45493;-74
2022/05/13 13:53:58;;;;;;;;;2.00;2.00;;;;;;;;5055917;28;46584;-74
2022/05/13 13:56:24;;;;;;;;;2.33;1.00;;;;;;;;5055911;28;45386;-74
2022/05/13 13:59:05;;;;;;;;;1.00;1.00;;;;;;;;5052779;28;45476;-75
2022/05/13 14:01:31;;;;;;;;;2.00;2.00;;;;;;;;5065785;27;45495;-75
2022/05/13 14:04:08;;;;;;;;;4.33;4.33;;;;;;;;5056825;28;45986;-75
2022/05/13 14:06:33;;;;;;;;;2.00;1.67;;;;;;;;5055386;28;45461;-74
2022/05/13 14:08:59;;;;;;;;;1.00;1.00;;;;;;;;5055656;28;45237;-75
2022/05/13 14:11:25;;;;;;;;;0.67;0.67;;;;;;;;5055007;28;45410;-75
2022/05/13 14:13:53;;;;;;;;;3.33;1.00;;;;;;;;5050715;28;45365;-74
2022/05/13 14:16:21;;;;;;;;;5.50;5.25;;;;;;;;5056176;28;45349;-75
2022/05/13 14:18:49;;;;;;;;;4.50;4.50;;;;;;;;5054853;28;45599;-75
2022/05/13 14:21:17;;;;;;;;;6.00;4.75;;;;;;;;5054854;28;45375;-75
2022/05/13 14:23:43;;;;;;;;;6.25;4.50;;;;;;;;5054537;28;45402;-75
2022/05/13 14:26:10;;;;;;;;;1.67;1.67;;;;;;;;5053031;28;45393;-74
2022/05/13 14:28:46;;;;;;;;;3.67;1.00;;;;;;;;5054461;28;45357;-75
2022/05/13 14:31:15;;;;;;;;;1.67;1.67;;;;;;;;5056068;28;45416;-75
2022/05/13 14:33:45;;;;;;;;;1.00;1.00;;;;;;;;5055024;28;46470;-75
2022/05/13 14:36:11;;;;;;;;;2.00;2.00;;;;;;;;5055438;28;45277;-76
2022/05/13 14:41:24;;;;;;;;;5.50;5.50;;;;;;;;5055497;28;45463;-74
2022/05/13 14:43:49;;;;;;;;;0.00;0.00;;;;;;;;5051362;28;45952;-75
2022/05/13 14:46:16;;;;;;;;;3.00;3.00;;;;;;;;5057214;28;45276;-74
2022/05/13 14:48:41;;;;;;;;;3.00;2.00;;;;;;;;5055148;28;45550;-74
2022/05/13 14:51:15;;;;;;;;;0.33;0.33;;;;;;;;5055345;28;45314;-74
2022/05/13 14:53:43;;;;;;;;;1.00;1.00;;;;;;;;5054943;28;47168;-74
2022/05/13 14:56:12;;;;;;;;;0.67;0.33;;;;;;;;5052450;28;45452;-74
2022/05/13 14:58:45;;;;;;;;;0.33;0.33;;;;;;;;5054707;28;45437;-74
2022/05/13 15:01:18;;;;;;;;;3.00;2.00;;;;;;;;5058508;28;45435;-74
2022/05/13 15:03:48;;;;;;;;;1.00;1.00;;;;;;;;5057659;28;45585;-75
2022/05/13 15:06:21;;;;;;;;;2.00;2.00;;;;;;;;5058106;27;45351;-74
2022/05/13 15:08:51;;;;;;;;;2.25;2.25;;;;;;;;5058294;28;45451;-74
2022/05/13 15:11:18;;;;;;;;;1.00;1.00;;;;;;;;5056607;28;45444;-73
2022/05/13 15:13:44;;;;;;;;;1.33;1.33;;;;;;;;5036342;28;46428;-74
2022/05/13 15:16:13;;;;;;;;;1.00;1.00;;;;;;;;5059654;28;45771;-74
2022/05/13 15:18:39;;;;;;;;;1.00;1.00;;;;;;;;5057834;28;45284;-74
2022/05/13 15:21:05;;;;;;;;;2.67;1.00;;;;;;;;5058288;28;45230;-74